createdAt,value
2022-08-07T00:00:52.822Z,0.70
2022-08-07T00:03:25.701Z,0.40
2022-08-07T00:05:53.971Z,0.57
2022-08-07T00:08:22.693Z,0.60
2022-08-07T00:10:58.379Z,0.33
2022-08-07T00:13:29.068Z,0.50
2022-08-07T00:15:57.758Z,0.47
2022-08-07T00:18:28.237Z,0.43
2022-08-07T00:21:01.818Z,0.30
2022-08-07T00:23:30.324Z,0.60
2022-08-07T00:26:13.261Z,0.50
2022-08-07T00:28:55.733Z,0.40
2022-08-07T00:31:37.934Z,0.50
2022-08-07T00:34:10.970Z,0.43
2022-08-07T00:36:42.683Z,0.53
2022-08-07T00:39:12.794Z,0.43
2022-08-07T00:41:53.610Z,0.45
2022-08-07T00:44:29.532Z,0.50
2022-08-07T00:47:00.569Z,0.40
2022-08-07T00:50:19.652Z,0.53
2022-08-07T00:52:20.135Z,0.43
2022-08-07T00:54:53.566Z,0.40
2022-08-07T00:57:22.966Z,0.30
2022-08-07T00:59:55.825Z,0.30
2022-08-07T01:02:28.550Z,0.40
2022-08-07T01:05:01.673Z,0.50
2022-08-07T01:07:30.975Z,0.40
2022-08-07T01:10:05.861Z,0.47
2022-08-07T01:12:38.825Z,0.40
2022-08-07T01:15:11.929Z,0.40
2022-08-07T01:17:45.835Z,0.40
2022-08-07T01:20:16.600Z,0.53
2022-08-07T01:23:00.756Z,0.53
2022-08-07T01:25:54.479Z,0.43
2022-08-07T01:28:23.672Z,0.40
2022-08-07T01:30:54.086Z,0.40
2022-08-07T01:33:23.734Z,0.40
2022-08-07T01:36:06.196Z,0.40
2022-08-07T01:38:38.743Z,0.30
2022-08-07T01:41:25.865Z,0.50
2022-08-07T01:43:56.064Z,0.30
2022-08-07T01:46:24.132Z,0.40
2022-08-07T01:48:53.572Z,0.40
2022-08-07T01:52:01.885Z,0.50
2022-08-07T01:54:22.086Z,0.30
2022-08-07T01:57:03.925Z,0.50
2022-08-07T01:59:35.185Z,0.50
2022-08-07T02:02:06.814Z,0.40
2022-08-07T02:04:55.866Z,0.37
2022-08-07T02:07:35.784Z,0.50
2022-08-07T02:10:09.042Z,0.40
2022-08-07T02:12:46.363Z,0.50
2022-08-07T02:15:25.403Z,0.37
2022-08-07T02:17:56.563Z,0.40
2022-08-07T02:20:24.735Z,0.33
2022-08-07T02:23:00.949Z,0.40
2022-08-07T02:25:47.218Z,0.37
2022-08-07T02:28:25.521Z,0.50
2022-08-07T02:30:57.739Z,0.40
2022-08-07T02:33:32.896Z,0.50
2022-08-07T02:36:29.245Z,0.30
2022-08-07T02:39:15.960Z,0.40
2022-08-07T02:41:54.182Z,0.30
2022-08-07T02:44:26.791Z,0.37
2022-08-07T02:46:55.774Z,0.50
2022-08-07T02:49:56.036Z,0.37
2022-08-07T02:52:17.083Z,0.40
2022-08-07T02:54:49.599Z,0.40
2022-08-07T02:57:22.835Z,0.50
2022-08-07T03:00:01.191Z,0.30
2022-08-07T03:02:35.627Z,0.40
2022-08-07T03:05:07.260Z,0.40
2022-08-07T03:08:05.109Z,0.47
2022-08-07T03:10:31.026Z,0.40
2022-08-07T03:13:01.476Z,0.60
2022-08-07T03:15:55.662Z,0.40
2022-08-07T03:18:21.073Z,0.40
2022-08-07T03:20:56.345Z,0.50
2022-08-07T03:23:33.405Z,0.30
2022-08-07T03:26:02.848Z,0.30
2022-08-07T03:28:39.485Z,0.37
2022-08-07T03:31:24.823Z,0.50
2022-08-07T03:34:09.533Z,0.50
2022-08-07T03:36:47.130Z,0.40
2022-08-07T03:39:17.610Z,0.40
2022-08-07T03:42:06.365Z,0.30
2022-08-07T03:44:39.684Z,0.33
2022-08-07T03:47:13.854Z,0.30
2022-08-07T03:49:51.860Z,0.40
2022-08-07T03:52:26.462Z,0.40
2022-08-07T03:55:06.485Z,0.40
2022-08-07T03:58:33.099Z,0.33
2022-08-07T04:00:37.197Z,0.33
2022-08-07T04:03:06.385Z,0.20
2022-08-07T04:05:42.321Z,0.40
2022-08-07T04:08:21.186Z,0.40
2022-08-07T04:10:54.712Z,0.33
2022-08-07T04:14:10.627Z,0.30
2022-08-07T04:16:32.298Z,0.30
2022-08-07T04:19:04.297Z,0.40
2022-08-07T04:21:48.190Z,0.40
2022-08-07T04:24:38.759Z,0.40
2022-08-07T04:27:15.164Z,0.50
2022-08-07T04:30:01.349Z,0.23
2022-08-07T04:32:48.431Z,0.40
2022-08-07T04:35:35.125Z,0.40
2022-08-07T04:38:07.731Z,0.30
2022-08-07T04:40:43.875Z,0.33
2022-08-07T04:44:09.811Z,0.40
2022-08-07T04:46:25.683Z,0.40
2022-08-07T04:49:02.466Z,0.37
2022-08-07T04:51:54.633Z,0.30
2022-08-07T04:54:30.193Z,0.30
2022-08-07T04:58:10.150Z,0.40
2022-08-07T05:00:14.528Z,0.30
2022-08-07T05:02:49.848Z,0.20
2022-08-07T05:05:53.372Z,0.43
2022-08-07T05:08:15.868Z,0.40
2022-08-07T05:10:46.648Z,0.30
2022-08-07T05:14:53.108Z,0.40
2022-08-07T05:16:07.722Z,0.37
2022-08-07T05:18:37.824Z,0.47
2022-08-07T05:21:10.831Z,0.40
2022-08-07T05:23:41.063Z,0.50
2022-08-07T05:26:18.875Z,0.33
2022-08-07T05:28:56.227Z,0.40
2022-08-07T05:31:34.960Z,0.23
2022-08-07T05:34:10.894Z,0.50
2022-08-07T05:36:44.374Z,0.40
2022-08-07T05:40:05.400Z,0.33
2022-08-07T05:42:34.463Z,0.20
2022-08-07T05:45:14.705Z,0.30
2022-08-07T05:48:01.295Z,0.40
2022-08-07T05:50:39.529Z,0.30
2022-08-07T05:54:12.984Z,0.37
2022-08-07T05:56:06.278Z,0.23
2022-08-07T05:58:39.665Z,0.40
2022-08-07T06:01:12.148Z,0.50
2022-08-07T06:03:53.434Z,0.47
2022-08-07T06:06:29.832Z,0.70
2022-08-07T06:09:04.603Z,0.50
2022-08-07T06:11:34.785Z,0.63
2022-08-07T06:14:12.719Z,0.50
2022-08-07T06:16:55.974Z,0.70
2022-08-07T06:19:52.192Z,0.40
2022-08-07T06:22:23.076Z,0.43
2022-08-07T06:25:03.179Z,0.57
2022-08-07T06:27:59.966Z,0.40
2022-08-07T06:30:35.166Z,0.60
2022-08-07T06:33:10.001Z,0.60
2022-08-07T06:36:06.219Z,0.87
2022-08-07T06:38:35.090Z,0.50
2022-08-07T06:41:07.271Z,0.60
2022-08-07T06:43:46.683Z,0.67
2022-08-07T06:46:35.208Z,0.53
2022-08-07T06:49:04.565Z,0.60
2022-08-07T06:51:49.958Z,0.50
2022-08-07T06:55:34.051Z,0.57
2022-08-07T06:57:11.150Z,0.50
2022-08-07T07:00:13.436Z,0.50
2022-08-07T07:02:48.778Z,0.60
2022-08-07T07:06:05.324Z,0.40
2022-08-07T07:08:18.915Z,0.50
2022-08-07T07:10:57.061Z,0.57
2022-08-07T07:13:43.613Z,0.53
2022-08-07T07:16:21.197Z,0.50
2022-08-07T07:18:51.153Z,0.53
2022-08-07T07:21:21.584Z,0.30
2022-08-07T07:24:08.734Z,0.60
2022-08-07T07:26:40.597Z,0.47
2022-08-07T07:29:28.542Z,0.50
2022-08-07T07:32:01.198Z,0.40
2022-08-07T07:34:32.099Z,0.53
2022-08-07T07:37:05.462Z,0.50
2022-08-07T07:39:52.207Z,0.40
2022-08-07T07:42:25.752Z,0.30
2022-08-07T07:45:02.317Z,0.50
2022-08-07T07:47:42.706Z,0.60
2022-08-07T07:50:36.410Z,0.50
2022-08-07T07:53:20.736Z,0.60
2022-08-07T07:55:54.648Z,0.40
2022-08-07T07:58:26.464Z,0.47
2022-08-07T08:00:57.206Z,0.60
2022-08-07T08:04:10.797Z,0.50
2022-08-07T08:06:17.309Z,0.47
2022-08-07T08:08:45.286Z,0.40
2022-08-07T08:11:47.386Z,0.33
2022-08-07T08:14:04.211Z,0.50
2022-08-07T08:16:38.669Z,0.63
2022-08-07T08:20:16.366Z,0.60
2022-08-07T08:22:16.705Z,0.70
2022-08-07T08:25:09.504Z,0.37
2022-08-07T08:27:51.986Z,0.60
2022-08-07T08:30:26.303Z,0.50
2022-08-07T08:32:57.451Z,0.60
2022-08-07T08:35:28.792Z,0.30
2022-08-07T08:38:08.526Z,0.50
2022-08-07T08:40:38.781Z,0.50
2022-08-07T08:43:11.931Z,0.60
2022-08-07T08:45:59.178Z,0.50
2022-08-07T08:48:35.947Z,0.50
2022-08-07T08:51:14.469Z,0.50
2022-08-07T08:53:53.675Z,0.50
2022-08-07T08:56:25.437Z,0.60
2022-08-07T08:58:57.074Z,0.40
2022-08-07T09:01:29.903Z,0.50
2022-08-07T09:04:25.704Z,0.43
2022-08-07T09:06:56.963Z,0.43
2022-08-07T09:09:37.005Z,0.50
2022-08-07T09:12:30.454Z,0.60
2022-08-07T09:16:24.187Z,0.63
2022-08-07T09:18:22.871Z,0.50
2022-08-07T09:21:01.070Z,0.60
2022-08-07T09:24:53.642Z,0.70
2022-08-07T09:26:31.270Z,0.40
2022-08-07T09:30:05.111Z,0.80
2022-08-07T09:31:56.008Z,0.60
2022-08-07T09:34:27.429Z,0.50
2022-08-07T09:37:01.733Z,0.50
2022-08-07T09:39:54.267Z,0.50
2022-08-07T09:42:41.985Z,0.60
2022-08-07T09:47:24.104Z,0.43
2022-08-07T09:48:18.973Z,0.60
2022-08-07T09:51:00.921Z,0.63
2022-08-07T09:53:41.347Z,0.70
2022-08-07T09:56:41.980Z,0.57
2022-08-07T09:59:29.768Z,0.70
2022-08-07T10:02:29.845Z,0.70
2022-08-07T10:05:14.199Z,0.53
2022-08-07T10:07:53.442Z,0.67
2022-08-07T10:10:53.810Z,0.67
2022-08-07T10:14:00.790Z,0.60
2022-08-07T10:16:41.796Z,0.53
2022-08-07T10:19:27.194Z,0.60
2022-08-07T10:22:16.859Z,0.67
2022-08-07T10:24:52.112Z,0.60
2022-08-07T10:27:45.849Z,0.60
2022-08-07T10:30:16.397Z,0.57
2022-08-07T10:34:04.151Z,0.60
2022-08-07T10:36:29.242Z,0.80
2022-08-07T10:39:00.119Z,0.60
2022-08-07T10:41:51.651Z,0.70
2022-08-07T10:44:37.942Z,0.60
2022-08-07T10:47:14.175Z,0.70
2022-08-07T10:49:50.902Z,0.60
2022-08-07T10:52:22.591Z,0.60
2022-08-07T10:55:20.865Z,0.60
2022-08-07T10:58:03.027Z,0.80
2022-08-07T11:00:42.860Z,0.63
2022-08-07T11:03:15.467Z,0.60
2022-08-07T11:05:51.309Z,0.70
2022-08-07T11:08:29.230Z,0.70
2022-08-07T11:11:00.428Z,0.80
2022-08-07T11:14:44.101Z,0.70
2022-08-07T11:16:29.747Z,0.60
2022-08-07T11:19:11.050Z,0.70
2022-08-07T11:21:43.092Z,0.43
2022-08-07T11:24:16.209Z,0.83
2022-08-07T11:26:49.921Z,0.70
2022-08-07T11:29:41.022Z,0.70
2022-08-07T11:32:13.558Z,0.70
2022-08-07T11:34:55.255Z,0.60
2022-08-07T11:37:38.663Z,0.70
2022-08-07T11:40:24.003Z,0.70
2022-08-07T11:43:00.028Z,0.70
2022-08-07T11:45:36.433Z,0.80
2022-08-07T11:48:36.337Z,0.77
2022-08-07T11:51:40.914Z,0.63
2022-08-07T11:54:22.170Z,0.70
2022-08-07T11:57:00.493Z,0.63
2022-08-07T12:00:12.128Z,0.70
2022-08-07T12:03:05.627Z,0.63
2022-08-07T12:05:48.865Z,0.53
2022-08-07T12:08:25.638Z,0.70
2022-08-07T12:11:20.778Z,0.67
2022-08-07T12:13:53.844Z,0.70
2022-08-07T12:16:30.422Z,0.70
2022-08-07T12:19:02.671Z,0.70
2022-08-07T12:22:37.987Z,0.80
2022-08-07T12:24:38.013Z,0.80
2022-08-07T12:27:10.639Z,0.50
2022-08-07T12:29:47.749Z,0.70
2022-08-07T12:32:24.399Z,0.60
2022-08-07T12:34:53.406Z,0.50
2022-08-07T12:37:28.467Z,0.70
2022-08-07T12:40:36.105Z,0.60
2022-08-07T12:43:09.647Z,0.53
2022-08-07T12:45:50.274Z,0.70
2022-08-07T12:48:41.433Z,0.70
2022-08-07T12:51:46.692Z,0.60
2022-08-07T12:54:36.836Z,0.67
2022-08-07T12:57:10.120Z,0.80
2022-08-07T12:59:54.205Z,0.83
2022-08-07T13:02:33.008Z,0.60
2022-08-07T13:06:01.818Z,0.60
2022-08-07T13:08:19.068Z,0.60
2022-08-07T13:10:53.273Z,0.70
2022-08-07T13:13:47.883Z,0.70
2022-08-07T13:16:23.530Z,0.70
2022-08-07T13:19:00.218Z,0.70
2022-08-07T13:21:37.623Z,0.70
2022-08-07T13:24:25.855Z,0.70
2022-08-07T13:27:02.787Z,0.60
2022-08-07T13:29:37.733Z,0.60
2022-08-07T13:32:32.480Z,0.70
2022-08-07T13:35:08.926Z,0.60
2022-08-07T13:37:42.855Z,0.77
2022-08-07T13:40:35.712Z,0.70
2022-08-07T13:43:12.442Z,0.70
2022-08-07T13:46:10.766Z,0.70
2022-08-07T13:48:34.039Z,0.60
2022-08-07T13:51:28.485Z,0.53
2022-08-07T13:54:01.000Z,0.60
2022-08-07T13:56:36.119Z,0.70
2022-08-07T13:59:13.433Z,0.60
2022-08-07T14:01:51.204Z,0.70
2022-08-07T14:04:35.379Z,0.60
2022-08-07T14:07:09.799Z,0.57
2022-08-07T14:10:12.351Z,0.70
2022-08-07T14:12:33.127Z,0.60
2022-08-07T14:15:18.660Z,0.67
2022-08-07T14:18:23.917Z,0.70
2022-08-07T14:20:41.127Z,0.70
2022-08-07T14:23:17.882Z,0.73
2022-08-07T14:26:00.274Z,0.50
2022-08-07T14:28:33.199Z,0.60
2022-08-07T14:31:17.895Z,0.60
2022-08-07T14:33:46.016Z,0.70
2022-08-07T14:36:14.863Z,0.50
2022-08-07T14:38:50.438Z,0.60
2022-08-07T14:41:34.137Z,0.57
2022-08-07T14:44:15.643Z,0.67
2022-08-07T14:46:58.631Z,0.57
2022-08-07T14:49:57.952Z,0.60
2022-08-07T14:52:28.036Z,0.60
2022-08-07T14:54:57.043Z,0.60
2022-08-07T14:57:26.599Z,0.70
2022-08-07T15:03:18.946Z,0.70
2022-08-07T15:05:55.122Z,0.70
2022-08-07T15:08:50.379Z,0.60
2022-08-07T15:11:50.871Z,0.60
2022-08-07T15:14:16.216Z,0.80
2022-08-07T15:16:54.934Z,0.60
2022-08-07T15:22:23.081Z,0.60
2022-08-07T15:28:26.529Z,0.50
2022-08-07T15:33:33.911Z,0.60
2022-08-07T15:36:07.513Z,0.40
2022-08-07T15:38:59.040Z,0.70
2022-08-07T15:42:42.455Z,0.60
2022-08-07T15:44:15.059Z,0.70
2022-08-07T15:46:51.867Z,0.60
2022-08-07T15:49:25.262Z,0.80
2022-08-07T15:54:29.797Z,0.70
2022-08-07T15:57:04.785Z,0.60
2022-08-07T15:59:40.095Z,0.70
2022-08-07T16:02:15.289Z,0.70
2022-08-07T16:04:44.000Z,0.67
2022-08-07T16:08:32.211Z,0.70
2022-08-07T16:10:08.709Z,0.60
2022-08-07T16:13:01.356Z,0.73
2022-08-07T16:15:55.146Z,0.70
2022-08-07T16:18:49.796Z,0.60
2022-08-07T16:22:01.954Z,0.53
2022-08-07T16:24:34.900Z,0.80
2022-08-07T16:27:17.987Z,0.67
2022-08-07T16:30:29.622Z,0.70
2022-08-07T16:33:00.086Z,0.90
2022-08-07T16:35:59.638Z,0.80
2022-08-07T16:38:57.516Z,0.77
2022-08-07T16:41:41.677Z,0.67
2022-08-07T16:46:21.070Z,0.80
2022-08-07T16:48:06.448Z,0.80
2022-08-07T16:51:13.579Z,0.70
2022-08-07T16:54:09.173Z,0.70
2022-08-07T16:56:53.419Z,0.80
2022-08-07T16:59:46.114Z,0.70
2022-08-07T17:02:53.433Z,0.70
2022-08-07T17:06:19.302Z,0.60
2022-08-07T17:08:20.152Z,0.63
2022-08-07T17:10:55.893Z,0.80
2022-08-07T17:14:18.482Z,0.70
2022-08-07T17:16:43.658Z,0.70
2022-08-07T17:19:16.697Z,0.63
2022-08-07T17:21:50.680Z,0.70
2022-08-07T17:24:37.410Z,0.60
2022-08-07T17:27:08.975Z,0.70
2022-08-07T17:30:18.108Z,0.70
2022-08-07T17:33:03.541Z,0.70
2022-08-07T17:35:55.057Z,0.83
2022-08-07T17:38:33.394Z,0.70
2022-08-07T17:42:00.909Z,0.67
2022-08-07T17:44:02.670Z,0.60
2022-08-07T17:46:40.158Z,0.70
2022-08-07T17:49:11.511Z,0.70
2022-08-07T17:51:59.585Z,0.70
2022-08-07T17:54:54.136Z,0.70
2022-08-07T17:57:22.575Z,0.73
2022-08-07T17:59:52.756Z,0.70
2022-08-07T18:02:27.308Z,0.60
2022-08-07T18:05:20.691Z,0.67
2022-08-07T18:07:56.593Z,0.70
2022-08-07T18:10:32.000Z,0.80
2022-08-07T18:13:15.331Z,0.80
2022-08-07T18:15:56.035Z,0.73
2022-08-07T18:18:46.910Z,0.80
2022-08-07T18:21:40.130Z,0.60
2022-08-07T18:24:08.944Z,0.70
2022-08-07T18:26:49.605Z,0.70
2022-08-07T18:30:06.478Z,0.63
2022-08-07T18:32:16.156Z,0.70
2022-08-07T18:35:01.699Z,0.70
2022-08-07T18:38:55.036Z,0.60
2022-08-07T18:40:42.358Z,0.67
2022-08-07T18:43:37.155Z,0.53
2022-08-07T18:46:26.742Z,0.70
2022-08-07T18:50:33.149Z,0.80
2022-08-07T18:52:34.674Z,0.50
2022-08-07T18:54:55.048Z,0.60
2022-08-07T18:57:36.777Z,0.63
2022-08-07T19:00:33.091Z,0.70
2022-08-07T19:03:12.515Z,0.70
2022-08-07T19:06:03.390Z,0.50
2022-08-07T19:08:42.097Z,0.70
2022-08-07T19:11:36.731Z,0.60
2022-08-07T19:14:11.637Z,0.60
2022-08-07T19:17:04.946Z,0.60
2022-08-07T19:19:42.344Z,0.70
2022-08-07T19:22:17.100Z,0.60
2022-08-07T19:24:48.679Z,0.60
2022-08-07T19:28:56.496Z,0.70
2022-08-07T19:30:56.463Z,0.60
2022-08-07T19:32:59.664Z,0.70
2022-08-07T19:35:28.254Z,0.70
2022-08-07T19:38:02.640Z,0.70
2022-08-07T19:40:37.504Z,0.60
2022-08-07T19:43:45.150Z,0.50
2022-08-07T19:46:30.465Z,0.70
2022-08-07T19:49:00.661Z,0.70
2022-08-07T19:51:52.269Z,0.67
2022-08-07T19:54:32.750Z,0.60
2022-08-07T19:58:02.556Z,0.60
2022-08-07T20:00:00.923Z,0.60
2022-08-07T20:02:34.523Z,0.70
2022-08-07T20:05:06.033Z,0.70
2022-08-07T20:07:47.321Z,0.70
2022-08-07T20:10:36.938Z,0.67
2022-08-07T20:13:22.820Z,0.70
2022-08-07T20:15:53.907Z,0.70
2022-08-07T20:18:32.709Z,0.70
2022-08-07T20:21:02.204Z,0.60
2022-08-07T20:23:41.568Z,0.80
2022-08-07T20:26:11.341Z,0.70
2022-08-07T20:28:44.829Z,0.60
2022-08-07T20:31:21.720Z,0.70
2022-08-07T20:33:56.868Z,0.63
2022-08-07T20:36:27.682Z,0.67
2022-08-07T20:39:00.241Z,0.70
2022-08-07T20:41:34.312Z,0.70
2022-08-07T20:44:12.482Z,0.60
2022-08-07T20:46:45.497Z,1.13
2022-08-07T20:49:58.114Z,0.60
2022-08-07T20:52:02.954Z,0.53
2022-08-07T20:54:34.768Z,0.60
2022-08-07T20:57:05.403Z,0.60
2022-08-07T21:00:06.935Z,0.70
2022-08-07T21:02:54.268Z,0.70
2022-08-07T21:05:42.738Z,0.60
2022-08-07T21:08:16.283Z,0.70
2022-08-07T21:10:53.165Z,0.70
2022-08-07T21:13:24.633Z,0.60
2022-08-07T21:16:11.839Z,0.50
2022-08-07T21:18:40.997Z,0.60
2022-08-07T21:21:10.912Z,0.53
2022-08-07T21:23:50.480Z,0.60
2022-08-07T21:26:30.741Z,0.60
2022-08-07T21:29:00.641Z,0.80
2022-08-07T21:32:42.332Z,0.60
2022-08-07T21:34:31.853Z,0.60
2022-08-07T21:37:03.100Z,0.60
2022-08-07T21:39:45.546Z,0.50
2022-08-07T21:42:48.178Z,0.53
2022-08-07T21:46:05.219Z,0.60
2022-08-07T21:48:03.769Z,0.70
2022-08-07T21:50:35.258Z,0.60
2022-08-07T21:53:08.578Z,0.70
2022-08-07T21:55:40.741Z,0.60
2022-08-07T21:58:12.148Z,0.60
2022-08-07T22:00:41.030Z,0.60
2022-08-07T22:03:16.721Z,0.60
2022-08-07T22:05:50.753Z,0.50
2022-08-07T22:08:21.389Z,0.50
2022-08-07T22:10:53.481Z,0.60
2022-08-07T22:13:24.305Z,0.60
2022-08-07T22:16:43.092Z,0.60
2022-08-07T22:19:04.325Z,0.60
2022-08-07T22:22:04.495Z,0.70
2022-08-07T22:24:32.932Z,0.40
2022-08-07T22:27:04.813Z,0.50
2022-08-07T22:29:48.391Z,0.50
2022-08-07T22:32:21.193Z,0.77
2022-08-07T22:34:54.377Z,0.60
2022-08-07T22:38:04.571Z,0.50
2022-08-07T22:40:19.499Z,0.50
2022-08-07T22:42:48.194Z,0.60
2022-08-07T22:46:04.779Z,0.60
2022-08-07T22:48:31.725Z,0.50
2022-08-07T22:51:36.485Z,0.57
2022-08-07T22:54:11.226Z,0.60
2022-08-07T22:56:52.239Z,0.67
2022-08-07T22:59:50.190Z,0.50
2022-08-07T23:02:42.378Z,0.60
2022-08-07T23:06:08.934Z,0.60
2022-08-07T23:08:30.231Z,0.50
2022-08-07T23:11:10.446Z,0.50
2022-08-07T23:14:10.490Z,0.57
2022-08-07T23:16:55.526Z,0.60
2022-08-07T23:19:51.439Z,0.60
2022-08-07T23:22:30.842Z,0.60
2022-08-07T23:25:08.383Z,0.47
2022-08-07T23:28:21.492Z,0.50
2022-08-07T23:31:05.917Z,0.53
2022-08-07T23:34:33.554Z,0.60
2022-08-07T23:36:54.719Z,0.60
2022-08-07T23:39:58.125Z,0.60
2022-08-07T23:42:30.529Z,0.60
2022-08-07T23:45:15.151Z,0.50
2022-08-07T23:48:02.708Z,0.60
2022-08-07T23:50:40.481Z,0.60
2022-08-07T23:53:21.135Z,0.60
2022-08-07T23:55:55.459Z,0.50
2022-08-07T23:58:27.493Z,0.53
